sensor_id;sensor_type;location;lat;lon;timestamp;pressure;altitude;pressure_sealevel;temperature;humidity
60228;BME280;46091;46.512;6.626;2024-01-11T06:32:55;97507.75;;;2.97;65.67
60228;BME280;46091;46.512;6.626;2024-01-11T06:34:58;97510.19;;;3.19;64.64
60228;BME280;46091;46.512;6.626;2024-01-11T06:37:00;97503.16;;;3.41;64.14
60228;BME280;46091;46.512;6.626;2024-01-11T06:39:04;97505.13;;;3.58;63.70
60228;BME280;46091;46.512;6.626;2024-01-11T06:41:07;97503.25;;;3.70;63.35
60228;BME280;46091;46.512;6.626;2024-01-11T06:43:09;97500.81;;;3.78;62.51
60228;BME280;46091;46.512;6.626;2024-01-11T06:45:13;97501.94;;;3.85;62.68
60228;BME280;46091;46.512;6.626;2024-01-11T06:47:16;97508.81;;;3.96;62.47
60228;BME280;46091;46.512;6.626;2024-01-11T06:49:20;97514.63;;;3.99;61.79
60228;BME280;46091;46.512;6.626;2024-01-11T06:51:24;97520.53;;;4.01;61.48
60228;BME280;46091;46.512;6.626;2024-01-11T06:53:27;97521.91;;;4.05;60.88
60228;BME280;46091;46.512;6.626;2024-01-11T06:55:30;97521.38;;;4.02;61.07
60228;BME280;46091;46.512;6.626;2024-01-11T06:57:33;97525.63;;;4.03;61.15
60228;BME280;46091;46.512;6.626;2024-01-11T06:59:36;97531.69;;;4.03;59.91
60228;BME280;46091;46.512;6.626;2024-01-11T07:01:39;97525.63;;;4.03;60.13
60228;BME280;46091;46.512;6.626;2024-01-11T07:03:42;97526.47;;;4.03;60.24
60228;BME280;46091;46.512;6.626;2024-01-11T07:05:46;97521.91;;;4.05;59.82
60228;BME280;46091;46.512;6.626;2024-01-11T07:07:49;97526.91;;;4.08;59.74
60228;BME280;46091;46.512;6.626;2024-01-11T07:09:53;97527.59;;;4.11;59.77
60228;BME280;46091;46.512;6.626;2024-01-11T07:11:57;97528.97;;;4.15;59.90
60228;BME280;46091;46.512;6.626;2024-01-11T07:14:00;97526.22;;;4.16;60.05
60228;BME280;46091;46.512;6.626;2024-01-11T07:16:03;97528.59;;;4.19;59.95
60228;BME280;46091;46.512;6.626;2024-01-11T07:18:06;97527.34;;;4.23;59.52
60228;BME280;46091;46.512;6.626;2024-01-11T07:20:10;97532.00;;;4.29;59.60
60228;BME280;46091;46.512;6.626;2024-01-11T07:22:14;97533.28;;;4.35;59.77
60228;BME280;46091;46.512;6.626;2024-01-11T07:24:18;97537.53;;;4.36;59.47
60228;BME280;46091;46.512;6.626;2024-01-11T07:26:21;97531.09;;;4.30;59.38
60228;BME280;46091;46.512;6.626;2024-01-11T07:28:24;97534.25;;;4.34;59.13
60228;BME280;46091;46.512;6.626;2024-01-11T07:30:27;97534.94;;;4.36;59.39
60228;BME280;46091;46.512;6.626;2024-01-11T07:32:30;97532.31;;;4.46;59.47
60228;BME280;46091;46.512;6.626;2024-01-11T07:34:32;97543.63;;;4.46;59.34
60228;BME280;46091;46.512;6.626;2024-01-11T07:36:35;97541.00;;;4.46;59.00
60228;BME280;46091;46.512;6.626;2024-01-11T07:38:40;97541.16;;;4.45;58.51
60228;BME280;46091;46.512;6.626;2024-01-11T07:40:42;97542.34;;;4.41;58.83
60228;BME280;46091;46.512;6.626;2024-01-11T07:42:45;97551.59;;;4.35;58.15
60228;BME280;46091;46.512;6.626;2024-01-11T07:44:47;97543.19;;;4.31;58.59
60228;BME280;46091;46.512;6.626;2024-01-11T07:46:50;97548.00;;;4.36;58.95
60228;BME280;46091;46.512;6.626;2024-01-11T07:48:56;97546.53;;;4.43;59.10
60228;BME280;46091;46.512;6.626;2024-01-11T07:51:00;97552.72;;;4.52;58.87
60228;BME280;46091;46.512;6.626;2024-01-11T07:53:04;97552.47;;;4.55;57.87
60228;BME280;46091;46.512;6.626;2024-01-11T07:55:10;97557.13;;;4.51;58.25
60228;BME280;46091;46.512;6.626;2024-01-11T07:57:14;97562.78;;;4.56;58.40
60228;BME280;46091;46.512;6.626;2024-01-11T07:59:17;97564.84;;;4.62;58.34
60228;BME280;46091;46.512;6.626;2024-01-11T08:01:20;97564.03;;;4.62;58.08
60228;BME280;46091;46.512;6.626;2024-01-11T08:03:22;97567.22;;;4.65;58.02
60228;BME280;46091;46.512;6.626;2024-01-11T08:05:25;97563.78;;;4.65;58.22
60228;BME280;46091;46.512;6.626;2024-01-11T08:07:29;97558.25;;;4.68;58.07
60228;BME280;46091;46.512;6.626;2024-01-11T08:09:31;97565.97;;;4.70;57.93
60228;BME280;46091;46.512;6.626;2024-01-11T08:11:36;97573.69;;;4.71;57.94
60228;BME280;46091;46.512;6.626;2024-01-11T08:13:43;97570.09;;;4.72;57.89
60228;BME280;46091;46.512;6.626;2024-01-11T08:15:46;97583.47;;;4.69;57.10
60228;BME280;46091;46.512;6.626;2024-01-11T08:17:49;97584.28;;;4.70;57.57
60228;BME280;46091;46.512;6.626;2024-01-11T08:19:52;97579.88;;;4.70;57.63
60228;BME280;46091;46.512;6.626;2024-01-11T08:21:56;97579.47;;;4.75;57.09
60228;BME280;46091;46.512;6.626;2024-01-11T08:23:59;97586.91;;;4.70;57.19
60228;BME280;46091;46.512;6.626;2024-01-11T08:26:04;97586.09;;;4.69;57.00
60228;BME280;46091;46.512;6.626;2024-01-11T08:28:08;97582.78;;;4.67;57.10
60228;BME280;46091;46.512;6.626;2024-01-11T08:30:13;97592.16;;;4.70;57.32
60228;BME280;46091;46.512;6.626;2024-01-11T08:32:15;97593.81;;;4.71;56.95
60228;BME280;46091;46.512;6.626;2024-01-11T08:34:32;97598.75;;;4.74;57.27
60228;BME280;46091;46.512;6.626;2024-01-11T08:36:35;97593.53;;;4.74;56.96
60228;BME280;46091;46.512;6.626;2024-01-11T08:38:40;97596.00;;;4.75;57.11
60228;BME280;46091;46.512;6.626;2024-01-11T08:40:43;97586.09;;;4.79;57.07
60228;BME280;46091;46.512;6.626;2024-01-11T08:42:46;97589.41;;;4.81;56.99
60228;BME280;46091;46.512;6.626;2024-01-11T08:44:50;97600.28;;;4.86;56.87
60228;BME280;46091;46.512;6.626;2024-01-11T08:46:53;97602.66;;;4.89;56.17
60228;BME280;46091;46.512;6.626;2024-01-11T08:48:56;97602.66;;;4.89;56.53
60228;BME280;46091;46.512;6.626;2024-01-11T08:50:59;97590.09;;;4.92;56.61
60228;BME280;46091;46.512;6.626;2024-01-11T08:53:02;97586.38;;;4.95;56.76
60228;BME280;46091;46.512;6.626;2024-01-11T08:55:05;97593.25;;;4.96;56.67
60228;BME280;46091;46.512;6.626;2024-01-11T08:57:09;97594.91;;;4.97;56.28
60228;BME280;46091;46.512;6.626;2024-01-11T08:59:12;97598.78;;;4.93;56.17
60228;BME280;46091;46.512;6.626;2024-01-11T09:01:16;97595.47;;;4.91;56.35
60228;BME280;46091;46.512;6.626;2024-01-11T09:03:20;97596.00;;;4.85;56.13
60228;BME280;46091;46.512;6.626;2024-01-11T09:05:23;97583.59;;;4.87;56.37
60228;BME280;46091;46.512;6.626;2024-01-11T09:07:26;97596.31;;;4.91;56.54
60228;BME280;46091;46.512;6.626;2024-01-11T09:09:30;97600.16;;;4.97;56.57
60228;BME280;46091;46.512;6.626;2024-01-11T09:11:41;97601.94;;;4.96;55.97
60228;BME280;46091;46.512;6.626;2024-01-11T09:13:44;97600.56;;;4.92;56.10
60228;BME280;46091;46.512;6.626;2024-01-11T09:15:48;97604.97;;;4.82;55.72
60228;BME280;46091;46.512;6.626;2024-01-11T09:17:53;97606.22;;;4.78;55.75
60228;BME280;46091;46.512;6.626;2024-01-11T09:19:56;97604.97;;;4.82;55.90
60228;BME280;46091;46.512;6.626;2024-01-11T09:21:59;97603.19;;;4.83;55.71
60228;BME280;46091;46.512;6.626;2024-01-11T09:24:02;97610.91;;;4.84;55.57
60228;BME280;46091;46.512;6.626;2024-01-11T09:26:06;97608.97;;;4.86;55.86
60228;BME280;46091;46.512;6.626;2024-01-11T09:28:09;97609.53;;;4.90;55.84
60228;BME280;46091;46.512;6.626;2024-01-11T09:30:13;97599.47;;;4.95;56.18
60228;BME280;46091;46.512;6.626;2024-01-11T09:32:16;97599.59;;;5.03;56.08
60228;BME280;46091;46.512;6.626;2024-01-11T09:34:21;97607.88;;;5.08;55.81
60228;BME280;46091;46.512;6.626;2024-01-11T09:36:23;97610.09;;;5.13;56.07
60228;BME280;46091;46.512;6.626;2024-01-11T09:38:26;97606.75;;;5.20;55.84
60228;BME280;46091;46.512;6.626;2024-01-11T09:40:29;97611.44;;;5.26;56.03
60228;BME280;46091;46.512;6.626;2024-01-11T09:42:32;97599.56;;;5.32;55.64
60228;BME280;46091;46.512;6.626;2024-01-11T09:44:37;97605.50;;;5.34;55.57
60228;BME280;46091;46.512;6.626;2024-01-11T09:46:41;97616.53;;;5.38;55.57
60228;BME280;46091;46.512;6.626;2024-01-11T09:48:45;97610.19;;;5.40;55.63
60228;BME280;46091;46.512;6.626;2024-01-11T09:50:52;97606.06;;;5.38;55.55
60228;BME280;46091;46.512;6.626;2024-01-11T09:52:55;97608.66;;;5.38;55.50
60228;BME280;46091;46.512;6.626;2024-01-11T09:54:58;97605.50;;;5.44;55.65
60228;BME280;46091;46.512;6.626;2024-01-11T09:57:04;97613.06;;;5.47;55.21
60228;BME280;46091;46.512;6.626;2024-01-11T09:59:08;97613.78;;;5.39;54.43
60228;BME280;46091;46.512;6.626;2024-01-11T10:01:15;97606.75;;;5.30;55.01
60228;BME280;46091;46.512;6.626;2024-01-11T10:03:18;97616.41;;;5.30;55.07
60228;BME280;46091;46.512;6.626;2024-01-11T10:05:22;97608.97;;;5.35;54.94
60228;BME280;46091;46.512;6.626;2024-01-11T10:07:27;97613.63;;;5.31;54.43
60228;BME280;46091;46.512;6.626;2024-01-11T10:09:35;97613.94;;;5.28;54.75
60228;BME280;46091;46.512;6.626;2024-01-11T10:11:38;97613.09;;;5.28;54.49
60228;BME280;46091;46.512;6.626;2024-01-11T10:13:42;97611.06;;;5.21;54.82
60228;BME280;46091;46.512;6.626;2024-01-11T10:15:45;97610.78;;;5.24;54.47
60228;BME280;46091;46.512;6.626;2024-01-11T10:17:48;97617.25;;;5.20;54.25
60228;BME280;46091;46.512;6.626;2024-01-11T10:19:53;97611.59;;;5.15;54.46
60228;BME280;46091;46.512;6.626;2024-01-11T10:21:57;97610.91;;;5.13;54.30
60228;BME280;46091;46.512;6.626;2024-01-11T10:24:03;97605.13;;;5.10;54.39
60228;BME280;46091;46.512;6.626;2024-01-11T10:26:05;97603.47;;;4.99;54.49
60228;BME280;46091;46.512;6.626;2024-01-11T10:28:13;97608.72;;;4.99;54.07
60228;BME280;46091;46.512;6.626;2024-01-11T10:30:16;97606.63;;;4.93;54.55
60228;BME280;46091;46.512;6.626;2024-01-11T10:32:20;97601.94;;;4.87;54.36
60228;BME280;46091;46.512;6.626;2024-01-11T10:34:24;97608.44;;;4.83;54.33
60228;BME280;46091;46.512;6.626;2024-01-11T10:36:30;97604.16;;;4.82;54.64
60228;BME280;46091;46.512;6.626;2024-01-11T10:38:35;97606.50;;;4.85;54.65
60228;BME280;46091;46.512;6.626;2024-01-11T10:40:43;97611.34;;;4.89;54.50
60228;BME280;46091;46.512;6.626;2024-01-11T10:42:51;97618.38;;;4.89;54.27
60228;BME280;46091;46.512;6.626;2024-01-11T10:44:56;97605.28;;;4.89;54.46
60228;BME280;46091;46.512;6.626;2024-01-11T10:47:02;97611.34;;;4.89;54.76
60228;BME280;46091;46.512;6.626;2024-01-11T10:49:10;97615.19;;;4.95;54.70
60228;BME280;46091;46.512;6.626;2024-01-11T10:51:18;97601.94;;;4.96;54.45
60228;BME280;46091;46.512;6.626;2024-01-11T10:53:28;97604.41;;;4.98;54.38
60228;BME280;46091;46.512;6.626;2024-01-11T10:55:34;97597.81;;;4.94;54.43
60228;BME280;46091;46.512;6.626;2024-01-11T10:57:39;97599.06;;;5.00;54.33
60228;BME280;46091;46.512;6.626;2024-01-11T10:59:44;97607.19;;;5.06;54.02
60228;BME280;46091;46.512;6.626;2024-01-11T11:01:48;97613.41;;;5.05;54.16
60228;BME280;46091;46.512;6.626;2024-01-11T11:03:52;97598.63;;;5.04;53.97
60228;BME280;46091;46.512;6.626;2024-01-11T11:05:58;97605.66;;;5.04;54.20
60228;BME280;46091;46.512;6.626;2024-01-11T11:08:04;97603.88;;;5.04;54.16
60228;BME280;46091;46.512;6.626;2024-01-11T11:10:09;97606.34;;;5.06;54.30
60228;BME280;46091;46.512;6.626;2024-01-11T11:12:13;97596.31;;;5.11;54.51
60228;BME280;46091;46.512;6.626;2024-01-11T11:14:19;97593.78;;;5.19;54.14
60228;BME280;46091;46.512;6.626;2024-01-11T11:16:23;97599.84;;;5.19;53.60
60228;BME280;46091;46.512;6.626;2024-01-11T11:18:27;97603.34;;;5.10;53.62
60228;BME280;46091;46.512;6.626;2024-01-11T11:20:31;97598.25;;;4.99;53.88
60228;BME280;46091;46.512;6.626;2024-01-11T11:22:35;97604.03;;;4.93;53.89
60228;BME280;46091;46.512;6.626;2024-01-11T11:24:38;97605.28;;;4.89;54.36
60228;BME280;46091;46.512;6.626;2024-01-11T11:26:41;97596.31;;;4.91;54.25
60228;BME280;46091;46.512;6.626;2024-01-11T11:28:44;97599.59;;;4.84;54.19
60228;BME280;46091;46.512;6.626;2024-01-11T11:30:49;97587.19;;;4.86;54.50
60228;BME280;46091;46.512;6.626;2024-01-11T11:32:54;97590.38;;;4.89;54.28
60228;BME280;46091;46.512;6.626;2024-01-11T11:34:57;97588.28;;;4.93;53.95
60228;BME280;46091;46.512;6.626;2024-01-11T11:37:02;97580.59;;;4.91;53.75
60228;BME280;46091;46.512;6.626;2024-01-11T11:39:05;97583.59;;;4.87;54.10
60228;BME280;46091;46.512;6.626;2024-01-11T11:41:09;97583.88;;;4.84;54.23
60228;BME280;46091;46.512;6.626;2024-01-11T11:43:12;97588.88;;;4.77;54.29
60228;BME280;46091;46.512;6.626;2024-01-11T11:45:24;97588.72;;;4.79;54.24
60228;BME280;46091;46.512;6.626;2024-01-11T11:47:35;97580.28;;;4.75;54.01
60228;BME280;46091;46.512;6.626;2024-01-11T11:50:04;97593.41;;;4.65;54.26
60228;BME280;46091;46.512;6.626;2024-01-11T11:52:14;97594.34;;;4.55;54.49
60228;BME280;46091;46.512;6.626;2024-01-11T11:54:18;97580.84;;;4.59;54.75
60228;BME280;46091;46.512;6.626;2024-01-11T11:56:22;97589.13;;;4.64;54.41
60228;BME280;46091;46.512;6.626;2024-01-11T11:58:25;97584.72;;;4.65;54.83
60228;BME280;46091;46.512;6.626;2024-01-11T12:00:29;97587.47;;;4.73;54.82
60228;BME280;46091;46.512;6.626;2024-01-11T12:02:37;97585.53;;;4.85;54.73
60228;BME280;46091;46.512;6.626;2024-01-11T12:04:40;97582.50;;;4.89;54.39
60228;BME280;46091;46.512;6.626;2024-01-11T12:06:43;97583.75;;;4.95;54.39
60228;BME280;46091;46.512;6.626;2024-01-11T12:08:48;97586.66;;;4.92;54.31
60228;BME280;46091;46.512;6.626;2024-01-11T12:10:52;97580.28;;;4.94;54.42
60228;BME280;46091;46.512;6.626;2024-01-11T12:12:54;97582.50;;;4.99;54.43
60228;BME280;46091;46.512;6.626;2024-01-11T12:14:57;97578.94;;;5.00;54.24
60228;BME280;46091;46.512;6.626;2024-01-11T12:17:00;97575.19;;;4.93;54.07
60228;BME280;46091;46.512;6.626;2024-01-11T12:19:06;97580.97;;;4.87;54.31
60228;BME280;46091;46.512;6.626;2024-01-11T12:21:09;97587.31;;;4.94;54.42
60228;BME280;46091;46.512;6.626;2024-01-11T12:23:12;97586.78;;;5.00;54.16
60228;BME280;46091;46.512;6.626;2024-01-11T12:25:15;97585.13;;;4.99;54.31
60228;BME280;46091;46.512;6.626;2024-01-11T12:27:18;97584.16;;;5.00;54.33
60228;BME280;46091;46.512;6.626;2024-01-11T12:29:23;97575.34;;;5.01;53.84
60228;BME280;46091;46.512;6.626;2024-01-11T12:31:26;97569.00;;;4.94;54.13
60228;BME280;46091;46.512;6.626;2024-01-11T12:33:31;97572.56;;;4.93;54.46
60228;BME280;46091;46.512;6.626;2024-01-11T12:35:39;97566.78;;;4.99;54.28
60228;BME280;46091;46.512;6.626;2024-01-11T12:37:52;97568.97;;;5.04;54.15
60228;BME280;46091;46.512;6.626;2024-01-11T12:39:57;97567.88;;;5.06;54.11
60228;BME280;46091;46.512;6.626;2024-01-11T12:42:01;97567.34;;;5.03;54.02
60228;BME280;46091;46.512;6.626;2024-01-11T12:44:04;97571.22;;;4.99;54.24
60228;BME280;46091;46.512;6.626;2024-01-11T12:46:08;97567.34;;;5.03;54.20
60228;BME280;46091;46.512;6.626;2024-01-11T12:48:10;97567.06;;;4.96;54.08
60228;BME280;46091;46.512;6.626;2024-01-11T12:50:16;97565.00;;;4.90;54.32
60228;BME280;46091;46.512;6.626;2024-01-11T12:52:20;97562.38;;;4.90;54.37
60228;BME280;46091;46.512;6.626;2024-01-11T12:54:25;97557.13;;;4.90;54.32
60228;BME280;46091;46.512;6.626;2024-01-11T12:56:29;97552.28;;;4.95;54.31
60228;BME280;46091;46.512;6.626;2024-01-11T12:58:32;97560.59;;;5.00;54.41
60228;BME280;46091;46.512;6.626;2024-01-11T13:00:35;97557.38;;;5.06;53.93
60228;BME280;46091;46.512;6.626;2024-01-11T13:02:39;97556.84;;;5.03;54.41
60228;BME280;46091;46.512;6.626;2024-01-11T13:04:44;97556.84;;;5.03;54.09
60228;BME280;46091;46.512;6.626;2024-01-11T13:06:48;97553.69;;;4.99;54.36
60228;BME280;46091;46.512;6.626;2024-01-11T13:08:52;97557.25;;;4.98;53.89
60228;BME280;46091;46.512;6.626;2024-01-11T13:10:55;97544.72;;;4.92;54.10
60228;BME280;46091;46.512;6.626;2024-01-11T13:12:58;97553.25;;;4.84;54.21
60228;BME280;46091;46.512;6.626;2024-01-11T13:15:10;97552.44;;;4.84;54.24
60228;BME280;46091;46.512;6.626;2024-01-11T13:17:13;97556.16;;;4.81;54.25
60228;BME280;46091;46.512;6.626;2024-01-11T13:19:17;97557.56;;;4.76;54.33
60228;BME280;46091;46.512;6.626;2024-01-11T13:21:28;97558.78;;;4.72;54.64
60228;BME280;46091;46.512;6.626;2024-01-11T13:23:32;97557.00;;;4.62;54.42
60228;BME280;46091;46.512;6.626;2024-01-11T13:25:36;97552.47;;;4.64;54.76
60228;BME280;46091;46.512;6.626;2024-01-11T13:27:39;97555.19;;;4.73;54.69
60228;BME280;46091;46.512;6.626;2024-01-11T13:29:42;97556.59;;;4.67;54.58
60228;BME280;46091;46.512;6.626;2024-01-11T13:31:46;97557.41;;;4.67;54.95
60228;BME280;46091;46.512;6.626;2024-01-11T13:33:49;97555.47;;;4.70;54.77
60228;BME280;46091;46.512;6.626;2024-01-11T13:35:51;97556.31;;;4.70;54.87
60228;BME280;46091;46.512;6.626;2024-01-11T13:37:55;97554.94;;;4.66;54.82
60228;BME280;46091;46.512;6.626;2024-01-11T13:39:58;97556.59;;;4.67;54.95
60228;BME280;46091;46.512;6.626;2024-01-11T13:42:03;97557.97;;;4.71;54.72
60228;BME280;46091;46.512;6.626;2024-01-11T13:44:11;97558.78;;;4.72;54.83
60228;BME280;46091;46.512;6.626;2024-01-11T13:46:14;97558.09;;;4.70;54.58
60228;BME280;46091;46.512;6.626;2024-01-11T13:48:21;97564.31;;;4.68;54.73
60228;BME280;46091;46.512;6.626;2024-01-11T13:50:24;97552.03;;;4.69;54.64
60228;BME280;46091;46.512;6.626;2024-01-11T13:52:27;97563.47;;;4.68;54.73
60228;BME280;46091;46.512;6.626;2024-01-11T13:54:30;97556.59;;;4.67;54.71
60228;BME280;46091;46.512;6.626;2024-01-11T13:56:33;97560.03;;;4.67;54.84
60228;BME280;46091;46.512;6.626;2024-01-11T13:58:37;97565.00;;;4.71;54.74
60228;BME280;46091;46.512;6.626;2024-01-11T14:00:41;97574.94;;;4.77;54.82
60228;BME280;46091;46.512;6.626;2024-01-11T14:02:43;97567.34;;;4.83;54.82
60228;BME280;46091;46.512;6.626;2024-01-11T14:04:47;97575.63;;;4.88;54.68
60228;BME280;46091;46.512;6.626;2024-01-11T14:06:50;97583.34;;;4.90;54.54
60228;BME280;46091;46.512;6.626;2024-01-11T14:08:54;97583.88;;;4.84;54.47
60228;BME280;46091;46.512;6.626;2024-01-11T14:10:57;97584.16;;;4.71;54.57
60228;BME280;46091;46.512;6.626;2024-01-11T14:13:00;97581.38;;;4.63;54.83
60228;BME280;46091;46.512;6.626;2024-01-11T14:15:07;97581.81;;;4.58;54.95
60228;BME280;46091;46.512;6.626;2024-01-11T14:17:14;97575.44;;;4.51;55.05
60228;BME280;46091;46.512;6.626;2024-01-11T14:19:17;97582.22;;;4.44;54.93
60228;BME280;46091;46.512;6.626;2024-01-11T14:21:20;97586.47;;;4.35;55.23
60228;BME280;46091;46.512;6.626;2024-01-11T14:23:23;97588.38;;;4.24;55.36
60228;BME280;46091;46.512;6.626;2024-01-11T14:25:26;97579.13;;;4.20;55.51
60228;BME280;46091;46.512;6.626;2024-01-11T14:27:31;97591.81;;;4.24;55.54
60228;BME280;46091;46.512;6.626;2024-01-11T14:29:34;97591.81;;;4.24;55.34
60228;BME280;46091;46.512;6.626;2024-01-11T14:31:37;97592.34;;;4.28;55.29
60228;BME280;46091;46.512;6.626;2024-01-11T14:33:41;97599.13;;;4.30;55.22
60228;BME280;46091;46.512;6.626;2024-01-11T14:35:44;97594.03;;;4.38;55.19
60228;BME280;46091;46.512;6.626;2024-01-11T14:37:47;97589.91;;;4.36;55.23
60228;BME280;46091;46.512;6.626;2024-01-11T14:39:50;97587.28;;;4.36;55.18
60228;BME280;46091;46.512;6.626;2024-01-11T14:41:52;97595.81;;;4.38;55.30
60228;BME280;46091;46.512;6.626;2024-01-11T14:43:58;97609.16;;;4.25;55.45
60228;BME280;46091;46.512;6.626;2024-01-11T14:46:03;97610.53;;;4.20;55.70
60228;BME280;46091;46.512;6.626;2024-01-11T14:48:08;97619.91;;;4.22;55.77
60228;BME280;46091;46.512;6.626;2024-01-11T14:50:14;97613.84;;;4.22;55.60
60228;BME280;46091;46.512;6.626;2024-01-11T14:52:17;97623.44;;;4.12;55.94
60228;BME280;46091;46.512;6.626;2024-01-11T14:54:20;97618.59;;;4.07;55.82
60228;BME280;46091;46.512;6.626;2024-01-11T14:56:23;97605.50;;;4.07;56.07
60228;BME280;46091;46.512;6.626;2024-01-11T14:58:26;97605.13;;;4.12;56.09
60228;BME280;46091;46.512;6.626;2024-01-11T15:00:28;97612.03;;;4.13;55.89
60228;BME280;46091;46.512;6.626;2024-01-11T15:02:32;97614.59;;;4.03;56.01
60228;BME280;46091;46.512;6.626;2024-01-11T15:04:37;97619.97;;;4.01;55.97
60228;BME280;46091;46.512;6.626;2024-01-11T15:06:40;97618.88;;;4.04;56.09
60228;BME280;46091;46.512;6.626;2024-01-11T15:08:43;97624.25;;;4.02;56.21
60228;BME280;46091;46.512;6.626;2024-01-11T15:10:46;97613.78;;;4.02;55.95
60228;BME280;46091;46.512;6.626;2024-01-11T15:12:49;97627.94;;;4.00;56.05
60228;BME280;46091;46.512;6.626;2024-01-11T15:14:53;97637.59;;;3.99;56.34
60228;BME280;46091;46.512;6.626;2024-01-11T15:16:56;97632.22;;;4.01;56.13
60228;BME280;46091;46.512;6.626;2024-01-11T15:19:00;97629.75;;;3.99;56.07
60228;BME280;46091;46.512;6.626;2024-01-11T15:21:04;97626.44;;;3.97;56.27
60228;BME280;46091;46.512;6.626;2024-01-11T15:23:08;97630.13;;;3.95;56.41
60228;BME280;46091;46.512;6.626;2024-01-11T15:25:11;97637.69;;;3.88;56.67
60228;BME280;46091;46.512;6.626;2024-01-11T15:27:14;97635.75;;;3.90;56.49
60228;BME280;46091;46.512;6.626;2024-01-11T15:29:17;97634.53;;;3.94;56.47
60228;BME280;46091;46.512;6.626;2024-01-11T15:31:20;97649.25;;;3.95;56.44
60228;BME280;46091;46.512;6.626;2024-01-11T15:33:23;97642.66;;;3.91;55.97
60228;BME280;46091;46.512;6.626;2024-01-11T15:35:26;97647.53;;;3.75;56.36
60228;BME280;46091;46.512;6.626;2024-01-11T15:37:31;97644.19;;;3.73;56.70
60228;BME280;46091;46.512;6.626;2024-01-11T15:39:34;97643.81;;;3.77;56.46
60228;BME280;46091;46.512;6.626;2024-01-11T15:41:38;97647.00;;;3.81;56.49
60228;BME280;46091;46.512;6.626;2024-01-11T15:43:40;97654.91;;;3.70;56.73
60228;BME280;46091;46.512;6.626;2024-01-11T15:45:43;97655.44;;;3.64;56.85
60228;BME280;46091;46.512;6.626;2024-01-11T15:47:47;97658.50;;;3.69;57.04
60228;BME280;46091;46.512;6.626;2024-01-11T15:49:50;97658.50;;;3.69;57.08
60228;BME280;46091;46.512;6.626;2024-01-11T15:51:53;97663.78;;;3.78;57.08
60228;BME280;46091;46.512;6.626;2024-01-11T15:53:58;97665.03;;;3.84;56.77
60228;BME280;46091;46.512;6.626;2024-01-11T15:56:01;97666.13;;;3.82;56.89
60228;BME280;46091;46.512;6.626;2024-01-11T15:58:05;97669.84;;;3.79;57.22
60228;BME280;46091;46.512;6.626;2024-01-11T16:00:08;97669.16;;;3.77;57.14
60228;BME280;46091;46.512;6.626;2024-01-11T16:02:12;97667.03;;;3.71;57.13
60228;BME280;46091;46.512;6.626;2024-01-11T16:04:16;97672.53;;;3.68;57.25
60228;BME280;46091;46.512;6.626;2024-01-11T16:06:20;97675.53;;;3.63;57.35
60228;BME280;46091;46.512;6.626;2024-01-11T16:08:23;97678.97;;;3.64;57.24
60228;BME280;46091;46.512;6.626;2024-01-11T16:10:28;97688.72;;;3.62;57.39
60228;BME280;46091;46.512;6.626;2024-01-11T16:12:32;97695.69;;;3.52;57.55
60228;BME280;46091;46.512;6.626;2024-01-11T16:14:35;97696.97;;;3.57;57.55
60228;BME280;46091;46.512;6.626;2024-01-11T16:16:38;97694.41;;;3.67;57.63
60228;BME280;46091;46.512;6.626;2024-01-11T16:18:41;97690.75;;;3.79;57.38
60228;BME280;46091;46.512;6.626;2024-01-11T16:20:45;97687.81;;;3.72;57.03
60228;BME280;46091;46.512;6.626;2024-01-11T16:22:47;97700.13;;;3.61;57.28
60228;BME280;46091;46.512;6.626;2024-01-11T16:24:51;97692.00;;;3.54;57.61
60228;BME280;46091;46.512;6.626;2024-01-11T16:26:56;97690.00;;;3.46;57.60
60228;BME280;46091;46.512;6.626;2024-01-11T16:28:58;97690.91;;;3.57;57.62
60228;BME280;46091;46.512;6.626;2024-01-11T16:31:02;97687.59;;;3.55;57.69
60228;BME280;46091;46.512;6.626;2024-01-11T16:33:06;97691.34;;;3.62;57.56
60228;BME280;46091;46.512;6.626;2024-01-11T16:35:10;97685.09;;;3.74;57.34
60228;BME280;46091;46.512;6.626;2024-01-11T16:37:13;97682.78;;;3.80;57.35
60228;BME280;46091;46.512;6.626;2024-01-11T16:39:17;97687.47;;;3.77;57.17
60228;BME280;46091;46.512;6.626;2024-01-11T16:41:20;97681.63;;;3.73;57.24
60228;BME280;46091;46.512;6.626;2024-01-11T16:43:24;97680.31;;;3.79;57.29
60228;BME280;46091;46.512;6.626;2024-01-11T16:45:27;97691.47;;;3.81;57.04
60228;BME280;46091;46.512;6.626;2024-01-11T16:47:33;97685.22;;;3.72;57.33
60228;BME280;46091;46.512;6.626;2024-01-11T16:49:40;97691.66;;;3.68;57.46
60228;BME280;46091;46.512;6.626;2024-01-11T16:51:44;97675.66;;;3.62;57.56
60228;BME280;46091;46.512;6.626;2024-01-11T16:53:51;97675.16;;;3.68;57.27
60228;BME280;46091;46.512;6.626;2024-01-11T16:55:54;97677.75;;;3.68;57.25
60228;BME280;46091;46.512;6.626;2024-01-11T16:57:58;97681.63;;;3.73;57.22
60228;BME280;46091;46.512;6.626;2024-01-11T17:00:05;97686.16;;;3.71;57.27
60228;BME280;46091;46.512;6.626;2024-01-11T17:02:08;97689.38;;;3.75;57.44
60228;BME280;46091;46.512;6.626;2024-01-11T17:04:12;97682.41;;;3.85;57.43
60228;BME280;46091;46.512;6.626;2024-01-11T17:06:16;97679.66;;;3.87;56.89
60228;BME280;46091;46.512;6.626;2024-01-11T17:08:21;97682.91;;;3.79;57.08
60228;BME280;46091;46.512;6.626;2024-01-11T17:10:25;97687.47;;;3.77;57.18
60228;BME280;46091;46.512;6.626;2024-01-11T17:12:27;97683.81;;;3.68;57.43
60228;BME280;46091;46.512;6.626;2024-01-11T17:14:30;97682.50;;;3.74;57.62
60228;BME280;46091;46.512;6.626;2024-01-11T17:16:35;97685.03;;;3.85;57.43
60228;BME280;46091;46.512;6.626;2024-01-11T17:18:38;97682.91;;;3.79;57.09
60228;BME280;46091;46.512;6.626;2024-01-11T17:20:41;97687.47;;;3.77;57.36
60228;BME280;46091;46.512;6.626;2024-01-11T17:22:44;97688.47;;;3.86;57.51
60228;BME280;46091;46.512;6.626;2024-01-11T17:24:48;97684.75;;;3.88;57.03
60228;BME280;46091;46.512;6.626;2024-01-11T17:26:51;97684.75;;;3.88;57.20
60228;BME280;46091;46.512;6.626;2024-01-11T17:28:54;97696.63;;;3.92;57.05
60228;BME280;46091;46.512;6.626;2024-01-11T17:30:57;97691.19;;;3.84;57.01
60228;BME280;46091;46.512;6.626;2024-01-11T17:33:02;97687.59;;;3.75;57.14
60228;BME280;46091;46.512;6.626;2024-01-11T17:35:06;97682.91;;;3.79;57.39
60228;BME280;46091;46.512;6.626;2024-01-11T17:37:09;97684.97;;;3.75;57.34